Kennebec, South Dakota
Current Conditions -  °F | °C
As of 4:15 AM on Thursday 29 Jan 2015 (Local Time) from K9V9 Reporting Station
Overcast Overcast  
Wind Chill: -6°   Ceiling: 5500
Heat Index:   Visibility: 10mi
Dew Point: -3°   Wind: 20mph
Humidity: 76%   Direction: 320°NW
Pressure: 30.3"   Gusts: 29mph
Location:  43.9°N, 99.86°W
Report Text: K9V9 291015Z AUTO 32017G25KT 10SM SCT033 OVC055 01/M03 A3030 RMK AO2 T00081030
Loading
Personal Weather Stations






























Interactive Weather Map New forecast layout! Learn more

10-Day Weather Forecast

Advertisements
Track Severe Weather on mobile